sensor_id;sensor_type;location;lat;lon;timestamp;P1;durP1;ratioP1;P2;durP2;ratioP2
74503;SDS011;62988;55.776;37.544;2022-10-16T00:01:22;10.27;;;5.10;;
74503;SDS011;62988;55.776;37.544;2022-10-16T00:03:51;12.63;;;4.18;;
74503;SDS011;62988;55.776;37.544;2022-10-16T00:06:17;8.77;;;3.97;;
74503;SDS011;62988;55.776;37.544;2022-10-16T00:08:45;14.30;;;4.30;;
74503;SDS011;62988;55.776;37.544;2022-10-16T00:11:12;12.48;;;4.38;;
74503;SDS011;62988;55.776;37.544;2022-10-16T00:13:40;9.98;;;4.65;;
74503;SDS011;62988;55.776;37.544;2022-10-16T00:16:08;13.55;;;4.45;;
74503;SDS011;62988;55.776;37.544;2022-10-16T00:18:35;10.48;;;4.88;;
74503;SDS011;62988;55.776;37.544;2022-10-16T00:21:10;10.77;;;4.82;;
74503;SDS011;62988;55.776;37.544;2022-10-16T00:26:08;11.77;;;4.20;;
74503;SDS011;62988;55.776;37.544;2022-10-16T00:28:36;8.13;;;4.05;;
74503;SDS011;62988;55.776;37.544;2022-10-16T00:31:03;11.57;;;3.90;;
74503;SDS011;62988;55.776;37.544;2022-10-16T00:33:33;9.85;;;3.47;;
74503;SDS011;62988;55.776;37.544;2022-10-16T00:35:59;8.77;;;3.67;;
74503;SDS011;62988;55.776;37.544;2022-10-16T00:38:25;13.35;;;4.38;;
74503;SDS011;62988;55.776;37.544;2022-10-16T00:40:51;8.20;;;3.85;;
74503;SDS011;62988;55.776;37.544;2022-10-16T00:46:13;10.63;;;3.63;;
74503;SDS011;62988;55.776;37.544;2022-10-16T00:48:58;13.80;;;4.03;;
74503;SDS011;62988;55.776;37.544;2022-10-16T00:52:12;9.35;;;4.45;;
74503;SDS011;62988;55.776;37.544;2022-10-16T00:54:20;7.82;;;3.92;;
74503;SDS011;62988;55.776;37.544;2022-10-16T00:56:49;12.13;;;4.65;;
74503;SDS011;62988;55.776;37.544;2022-10-16T00:59:20;9.88;;;3.83;;
74503;SDS011;62988;55.776;37.544;2022-10-16T01:01:50;12.35;;;4.10;;
74503;SDS011;62988;55.776;37.544;2022-10-16T01:04:17;7.25;;;3.75;;
74503;SDS011;62988;55.776;37.544;2022-10-16T01:09:23;9.68;;;3.60;;
74503;SDS011;62988;55.776;37.544;2022-10-16T01:17:11;10.50;;;3.97;;
74503;SDS011;62988;55.776;37.544;2022-10-16T01:22:27;9.75;;;4.32;;
74503;SDS011;62988;55.776;37.544;2022-10-16T01:25:21;11.60;;;3.80;;
74503;SDS011;62988;55.776;37.544;2022-10-16T01:30:33;14.82;;;3.47;;
74503;SDS011;62988;55.776;37.544;2022-10-16T01:35:54;6.97;;;2.97;;
74503;SDS011;62988;55.776;37.544;2022-10-16T01:38:34;10.57;;;3.45;;
74503;SDS011;62988;55.776;37.544;2022-10-16T01:43:53;9.45;;;3.35;;
74503;SDS011;62988;55.776;37.544;2022-10-16T01:46:25;9.35;;;2.92;;
74503;SDS011;62988;55.776;37.544;2022-10-16T01:48:51;13.00;;;3.75;;
74503;SDS011;62988;55.776;37.544;2022-10-16T01:51:17;7.60;;;3.03;;
74503;SDS011;62988;55.776;37.544;2022-10-16T01:53:47;7.18;;;2.80;;
74503;SDS011;62988;55.776;37.544;2022-10-16T01:56:15;9.80;;;3.40;;
74503;SDS011;62988;55.776;37.544;2022-10-16T01:58:48;14.48;;;3.97;;
74503;SDS011;62988;55.776;37.544;2022-10-16T02:01:16;11.48;;;3.13;;
74503;SDS011;62988;55.776;37.544;2022-10-16T02:03:45;9.02;;;3.28;;
74503;SDS011;62988;55.776;37.544;2022-10-16T02:06:14;8.70;;;3.58;;
74503;SDS011;62988;55.776;37.544;2022-10-16T02:08:40;9.02;;;3.58;;
74503;SDS011;62988;55.776;37.544;2022-10-16T02:11:09;10.65;;;3.67;;
74503;SDS011;62988;55.776;37.544;2022-10-16T02:13:37;8.80;;;3.38;;
74503;SDS011;62988;55.776;37.544;2022-10-16T02:16:08;7.47;;;3.30;;
74503;SDS011;62988;55.776;37.544;2022-10-16T02:18:35;6.00;;;3.00;;
74503;SDS011;62988;55.776;37.544;2022-10-16T02:21:02;7.03;;;3.45;;
74503;SDS011;62988;55.776;37.544;2022-10-16T02:23:42;7.18;;;3.10;;
74503;SDS011;62988;55.776;37.544;2022-10-16T02:26:11;7.07;;;3.03;;
74503;SDS011;62988;55.776;37.544;2022-10-16T02:28:51;12.60;;;3.53;;
74503;SDS011;62988;55.776;37.544;2022-10-16T02:31:25;7.50;;;3.22;;
74503;SDS011;62988;55.776;37.544;2022-10-16T02:33:54;7.93;;;2.88;;
74503;SDS011;62988;55.776;37.544;2022-10-16T02:36:23;10.27;;;3.42;;
74503;SDS011;62988;55.776;37.544;2022-10-16T02:38:50;7.50;;;3.20;;
74503;SDS011;62988;55.776;37.544;2022-10-16T02:41:17;7.40;;;3.03;;
74503;SDS011;62988;55.776;37.544;2022-10-16T02:43:43;11.00;;;3.72;;
74503;SDS011;62988;55.776;37.544;2022-10-16T02:46:09;11.10;;;3.00;;
74503;SDS011;62988;55.776;37.544;2022-10-16T02:48:34;10.68;;;3.40;;
74503;SDS011;62988;55.776;37.544;2022-10-16T02:51:00;12.30;;;2.70;;
74503;SDS011;62988;55.776;37.544;2022-10-16T02:53:26;7.82;;;3.78;;
74503;SDS011;62988;55.776;37.544;2022-10-16T02:55:52;7.28;;;3.00;;
74503;SDS011;62988;55.776;37.544;2022-10-16T02:58:17;11.43;;;3.30;;
74503;SDS011;62988;55.776;37.544;2022-10-16T03:00:43;9.13;;;3.22;;
74503;SDS011;62988;55.776;37.544;2022-10-16T03:03:08;8.80;;;3.28;;
74503;SDS011;62988;55.776;37.544;2022-10-16T03:05:34;11.32;;;3.67;;
74503;SDS011;62988;55.776;37.544;2022-10-16T03:07:59;10.43;;;3.22;;
74503;SDS011;62988;55.776;37.544;2022-10-16T03:10:26;11.55;;;3.30;;
74503;SDS011;62988;55.776;37.544;2022-10-16T03:12:52;5.68;;;2.70;;
74503;SDS011;62988;55.776;37.544;2022-10-16T03:15:17;6.95;;;3.13;;
74503;SDS011;62988;55.776;37.544;2022-10-16T03:17:43;11.07;;;2.95;;
74503;SDS011;62988;55.776;37.544;2022-10-16T03:20:09;12.30;;;2.95;;
74503;SDS011;62988;55.776;37.544;2022-10-16T03:22:35;6.60;;;2.83;;
74503;SDS011;62988;55.776;37.544;2022-10-16T03:25:00;7.35;;;3.03;;
74503;SDS011;62988;55.776;37.544;2022-10-16T03:27:26;9.43;;;2.65;;
74503;SDS011;62988;55.776;37.544;2022-10-16T03:29:51;7.43;;;2.72;;
74503;SDS011;62988;55.776;37.544;2022-10-16T03:32:17;6.85;;;2.97;;
74503;SDS011;62988;55.776;37.544;2022-10-16T03:34:43;7.35;;;2.70;;
74503;SDS011;62988;55.776;37.544;2022-10-16T03:37:09;7.25;;;3.20;;
74503;SDS011;62988;55.776;37.544;2022-10-16T03:39:35;9.27;;;3.20;;
74503;SDS011;62988;55.776;37.544;2022-10-16T03:42:00;9.02;;;3.13;;
74503;SDS011;62988;55.776;37.544;2022-10-16T03:44:25;9.88;;;3.30;;
74503;SDS011;62988;55.776;37.544;2022-10-16T03:46:51;9.85;;;3.33;;
74503;SDS011;62988;55.776;37.544;2022-10-16T03:49:17;11.23;;;3.22;;
74503;SDS011;62988;55.776;37.544;2022-10-16T03:51:42;8.65;;;3.42;;
74503;SDS011;62988;55.776;37.544;2022-10-16T03:54:09;7.85;;;2.90;;
74503;SDS011;62988;55.776;37.544;2022-10-16T03:56:35;16.75;;;4.03;;
74503;SDS011;62988;55.776;37.544;2022-10-16T03:59:00;8.02;;;3.05;;
74503;SDS011;62988;55.776;37.544;2022-10-16T04:01:26;8.95;;;2.90;;
74503;SDS011;62988;55.776;37.544;2022-10-16T04:03:51;9.50;;;3.42;;
74503;SDS011;62988;55.776;37.544;2022-10-16T04:06:17;8.88;;;3.30;;
74503;SDS011;62988;55.776;37.544;2022-10-16T04:08:43;10.82;;;3.28;;
74503;SDS011;62988;55.776;37.544;2022-10-16T04:11:09;9.23;;;3.30;;
74503;SDS011;62988;55.776;37.544;2022-10-16T04:13:34;9.95;;;2.70;;
74503;SDS011;62988;55.776;37.544;2022-10-16T04:16:00;12.18;;;3.83;;
74503;SDS011;62988;55.776;37.544;2022-10-16T04:18:25;9.88;;;3.20;;
74503;SDS011;62988;55.776;37.544;2022-10-16T04:20:52;9.95;;;3.53;;
74503;SDS011;62988;55.776;37.544;2022-10-16T04:23:18;8.95;;;3.58;;
74503;SDS011;62988;55.776;37.544;2022-10-16T04:25:44;10.65;;;2.90;;
74503;SDS011;62988;55.776;37.544;2022-10-16T04:28:09;13.73;;;2.97;;
74503;SDS011;62988;55.776;37.544;2022-10-16T04:30:37;5.55;;;2.67;;
74503;SDS011;62988;55.776;37.544;2022-10-16T04:33:03;11.25;;;3.05;;
74503;SDS011;62988;55.776;37.544;2022-10-16T04:35:29;11.82;;;3.33;;
74503;SDS011;62988;55.776;37.544;2022-10-16T04:37:56;9.63;;;2.92;;
74503;SDS011;62988;55.776;37.544;2022-10-16T04:40:22;10.68;;;2.83;;
74503;SDS011;62988;55.776;37.544;2022-10-16T04:42:48;10.43;;;3.22;;
74503;SDS011;62988;55.776;37.544;2022-10-16T04:45:13;11.10;;;3.05;;
74503;SDS011;62988;55.776;37.544;2022-10-16T04:47:39;4.85;;;2.58;;
74503;SDS011;62988;55.776;37.544;2022-10-16T04:50:05;10.77;;;3.45;;
74503;SDS011;62988;55.776;37.544;2022-10-16T04:52:31;9.65;;;3.03;;
74503;SDS011;62988;55.776;37.544;2022-10-16T04:54:57;10.55;;;3.20;;
74503;SDS011;62988;55.776;37.544;2022-10-16T04:57:26;9.60;;;3.00;;
74503;SDS011;62988;55.776;37.544;2022-10-16T04:59:52;11.18;;;3.30;;
74503;SDS011;62988;55.776;37.544;2022-10-16T05:02:17;8.40;;;2.60;;
74503;SDS011;62988;55.776;37.544;2022-10-16T05:04:43;9.88;;;3.25;;
74503;SDS011;62988;55.776;37.544;2022-10-16T05:07:08;8.90;;;3.20;;
74503;SDS011;62988;55.776;37.544;2022-10-16T05:09:34;6.45;;;3.08;;
74503;SDS011;62988;55.776;37.544;2022-10-16T05:11:59;9.25;;;2.90;;
74503;SDS011;62988;55.776;37.544;2022-10-16T05:14:25;13.10;;;3.40;;
74503;SDS011;62988;55.776;37.544;2022-10-16T05:16:50;9.38;;;3.22;;
74503;SDS011;62988;55.776;37.544;2022-10-16T05:19:16;5.80;;;3.03;;
74503;SDS011;62988;55.776;37.544;2022-10-16T05:21:42;8.52;;;2.95;;
74503;SDS011;62988;55.776;37.544;2022-10-16T05:24:08;11.52;;;3.17;;
74503;SDS011;62988;55.776;37.544;2022-10-16T05:26:34;14.98;;;3.70;;
74503;SDS011;62988;55.776;37.544;2022-10-16T05:28:59;11.27;;;3.22;;
74503;SDS011;62988;55.776;37.544;2022-10-16T05:31:25;9.75;;;3.40;;
74503;SDS011;62988;55.776;37.544;2022-10-16T05:33:51;7.05;;;3.42;;
74503;SDS011;62988;55.776;37.544;2022-10-16T05:36:17;21.48;;;3.75;;
74503;SDS011;62988;55.776;37.544;2022-10-16T05:38:43;7.20;;;2.92;;
74503;SDS011;62988;55.776;37.544;2022-10-16T05:41:09;7.50;;;3.22;;
74503;SDS011;62988;55.776;37.544;2022-10-16T05:43:34;6.25;;;2.95;;
74503;SDS011;62988;55.776;37.544;2022-10-16T05:46:01;11.57;;;3.25;;
74503;SDS011;62988;55.776;37.544;2022-10-16T05:48:30;7.65;;;3.70;;
74503;SDS011;62988;55.776;37.544;2022-10-16T05:51:01;16.60;;;3.88;;
74503;SDS011;62988;55.776;37.544;2022-10-16T05:53:34;11.50;;;3.38;;
74503;SDS011;62988;55.776;37.544;2022-10-16T05:56:02;13.02;;;3.90;;
74503;SDS011;62988;55.776;37.544;2022-10-16T05:58:28;8.40;;;3.55;;
74503;SDS011;62988;55.776;37.544;2022-10-16T06:00:56;12.85;;;3.90;;
74503;SDS011;62988;55.776;37.544;2022-10-16T06:03:23;15.13;;;3.63;;
74503;SDS011;62988;55.776;37.544;2022-10-16T06:05:49;10.65;;;3.33;;
74503;SDS011;62988;55.776;37.544;2022-10-16T06:08:16;10.80;;;3.35;;
74503;SDS011;62988;55.776;37.544;2022-10-16T06:10:42;11.02;;;3.40;;
74503;SDS011;62988;55.776;37.544;2022-10-16T06:13:08;12.57;;;3.90;;
74503;SDS011;62988;55.776;37.544;2022-10-16T06:15:34;6.43;;;3.38;;
74503;SDS011;62988;55.776;37.544;2022-10-16T06:18:00;9.25;;;4.00;;
74503;SDS011;62988;55.776;37.544;2022-10-16T06:20:25;19.25;;;4.60;;
74503;SDS011;62988;55.776;37.544;2022-10-16T06:22:51;13.63;;;4.28;;
74503;SDS011;62988;55.776;37.544;2022-10-16T06:25:17;15.30;;;4.20;;
74503;SDS011;62988;55.776;37.544;2022-10-16T06:27:42;21.48;;;4.13;;
74503;SDS011;62988;55.776;37.544;2022-10-16T06:30:08;10.57;;;3.35;;
74503;SDS011;62988;55.776;37.544;2022-10-16T06:32:34;9.80;;;3.72;;
74503;SDS011;62988;55.776;37.544;2022-10-16T06:34:59;11.30;;;3.92;;
74503;SDS011;62988;55.776;37.544;2022-10-16T06:37:25;9.18;;;4.07;;
74503;SDS011;62988;55.776;37.544;2022-10-16T06:39:52;13.63;;;4.32;;
74503;SDS011;62988;55.776;37.544;2022-10-16T06:42:17;12.57;;;4.20;;
74503;SDS011;62988;55.776;37.544;2022-10-16T06:44:43;10.68;;;4.40;;
74503;SDS011;62988;55.776;37.544;2022-10-16T06:47:10;16.17;;;4.43;;
74503;SDS011;62988;55.776;37.544;2022-10-16T06:49:35;13.05;;;4.13;;
74503;SDS011;62988;55.776;37.544;2022-10-16T06:52:01;10.52;;;4.00;;
74503;SDS011;62988;55.776;37.544;2022-10-16T06:54:27;15.00;;;4.20;;
74503;SDS011;62988;55.776;37.544;2022-10-16T06:56:53;10.80;;;4.38;;
74503;SDS011;62988;55.776;37.544;2022-10-16T06:59:22;14.52;;;4.40;;
74503;SDS011;62988;55.776;37.544;2022-10-16T07:01:48;22.73;;;4.55;;
74503;SDS011;62988;55.776;37.544;2022-10-16T07:04:13;14.05;;;4.45;;
74503;SDS011;62988;55.776;37.544;2022-10-16T07:06:39;17.80;;;5.05;;
74503;SDS011;62988;55.776;37.544;2022-10-16T07:09:06;11.60;;;4.00;;
74503;SDS011;62988;55.776;37.544;2022-10-16T07:11:34;9.93;;;4.20;;
74503;SDS011;62988;55.776;37.544;2022-10-16T07:14:00;11.65;;;4.40;;
74503;SDS011;62988;55.776;37.544;2022-10-16T07:16:26;20.13;;;5.10;;
74503;SDS011;62988;55.776;37.544;2022-10-16T07:18:54;10.73;;;3.55;;
74503;SDS011;62988;55.776;37.544;2022-10-16T07:23:51;10.25;;;4.18;;
74503;SDS011;62988;55.776;37.544;2022-10-16T07:26:17;14.38;;;4.50;;
74503;SDS011;62988;55.776;37.544;2022-10-16T07:28:43;10.77;;;4.07;;
74503;SDS011;62988;55.776;37.544;2022-10-16T07:31:10;12.13;;;4.30;;
74503;SDS011;62988;55.776;37.544;2022-10-16T07:33:38;9.77;;;4.35;;
74503;SDS011;62988;55.776;37.544;2022-10-16T07:36:05;18.90;;;4.60;;
74503;SDS011;62988;55.776;37.544;2022-10-16T07:38:30;16.45;;;4.63;;
74503;SDS011;62988;55.776;37.544;2022-10-16T07:41:00;14.90;;;3.88;;
74503;SDS011;62988;55.776;37.544;2022-10-16T07:43:27;13.55;;;3.92;;
74503;SDS011;62988;55.776;37.544;2022-10-16T07:45:53;15.32;;;4.90;;
74503;SDS011;62988;55.776;37.544;2022-10-16T07:48:20;18.30;;;4.00;;
74503;SDS011;62988;55.776;37.544;2022-10-16T07:50:46;17.33;;;4.65;;
74503;SDS011;62988;55.776;37.544;2022-10-16T07:53:12;13.02;;;4.68;;
74503;SDS011;62988;55.776;37.544;2022-10-16T07:55:38;14.27;;;4.47;;
74503;SDS011;62988;55.776;37.544;2022-10-16T07:58:04;10.60;;;3.85;;
74503;SDS011;62988;55.776;37.544;2022-10-16T08:00:30;14.00;;;5.18;;
74503;SDS011;62988;55.776;37.544;2022-10-16T08:02:59;13.98;;;4.40;;
74503;SDS011;62988;55.776;37.544;2022-10-16T08:05:26;15.13;;;3.85;;
74503;SDS011;62988;55.776;37.544;2022-10-16T08:07:52;14.23;;;4.63;;
74503;SDS011;62988;55.776;37.544;2022-10-16T08:10:18;22.42;;;3.75;;
74503;SDS011;62988;55.776;37.544;2022-10-16T08:12:45;22.50;;;4.93;;
74503;SDS011;62988;55.776;37.544;2022-10-16T08:15:11;11.40;;;4.35;;
74503;SDS011;62988;55.776;37.544;2022-10-16T08:17:37;11.25;;;3.53;;
74503;SDS011;62988;55.776;37.544;2022-10-16T08:20:02;14.45;;;3.55;;
74503;SDS011;62988;55.776;37.544;2022-10-16T08:22:29;11.05;;;3.75;;
74503;SDS011;62988;55.776;37.544;2022-10-16T08:24:54;8.88;;;4.15;;
74503;SDS011;62988;55.776;37.544;2022-10-16T08:27:20;13.93;;;4.15;;
74503;SDS011;62988;55.776;37.544;2022-10-16T08:29:45;11.55;;;4.47;;
74503;SDS011;62988;55.776;37.544;2022-10-16T08:32:11;15.77;;;4.40;;
74503;SDS011;62988;55.776;37.544;2022-10-16T08:34:37;10.75;;;3.75;;
74503;SDS011;62988;55.776;37.544;2022-10-16T08:37:02;17.70;;;4.43;;
74503;SDS011;62988;55.776;37.544;2022-10-16T08:39:28;12.57;;;3.92;;
74503;SDS011;62988;55.776;37.544;2022-10-16T08:47:41;8.30;;;3.42;;
74503;SDS011;62988;55.776;37.544;2022-10-16T08:50:16;9.18;;;4.15;;
74503;SDS011;62988;55.776;37.544;2022-10-16T08:52:46;11.75;;;3.22;;
74503;SDS011;62988;55.776;37.544;2022-10-16T08:55:17;15.65;;;4.20;;
74503;SDS011;62988;55.776;37.544;2022-10-16T08:57:55;8.52;;;3.70;;
74503;SDS011;62988;55.776;37.544;2022-10-16T09:00:21;10.02;;;3.25;;
74503;SDS011;62988;55.776;37.544;2022-10-16T09:02:56;6.85;;;2.67;;
74503;SDS011;62988;55.776;37.544;2022-10-16T09:11:03;8.68;;;2.85;;
74503;SDS011;62988;55.776;37.544;2022-10-16T09:13:48;15.07;;;5.20;;
74503;SDS011;62988;55.776;37.544;2022-10-16T09:19:15;6.38;;;2.65;;
74503;SDS011;62988;55.776;37.544;2022-10-16T09:21:48;8.05;;;3.08;;
74503;SDS011;62988;55.776;37.544;2022-10-16T09:24:15;7.43;;;2.58;;
74503;SDS011;62988;55.776;37.544;2022-10-16T09:26:45;10.23;;;2.88;;
74503;SDS011;62988;55.776;37.544;2022-10-16T09:29:13;8.63;;;3.00;;
74503;SDS011;62988;55.776;37.544;2022-10-16T09:31:40;9.23;;;2.80;;
74503;SDS011;62988;55.776;37.544;2022-10-16T09:34:08;14.73;;;3.08;;
74503;SDS011;62988;55.776;37.544;2022-10-16T09:36:45;9.60;;;3.03;;
74503;SDS011;62988;55.776;37.544;2022-10-16T09:39:12;10.60;;;2.78;;
74503;SDS011;62988;55.776;37.544;2022-10-16T09:41:38;9.68;;;2.72;;
74503;SDS011;62988;55.776;37.544;2022-10-16T09:47:28;11.80;;;3.00;;
74503;SDS011;62988;55.776;37.544;2022-10-16T09:49:56;9.00;;;2.42;;
74503;SDS011;62988;55.776;37.544;2022-10-16T09:52:25;7.40;;;2.88;;
74503;SDS011;62988;55.776;37.544;2022-10-16T09:54:58;10.30;;;2.97;;
74503;SDS011;62988;55.776;37.544;2022-10-16T09:57:25;7.47;;;2.28;;
74503;SDS011;62988;55.776;37.544;2022-10-16T09:59:52;6.20;;;2.22;;
74503;SDS011;62988;55.776;37.544;2022-10-16T10:02:20;11.70;;;2.65;;
74503;SDS011;62988;55.776;37.544;2022-10-16T10:04:56;11.65;;;2.38;;
74503;SDS011;62988;55.776;37.544;2022-10-16T10:07:32;10.88;;;2.22;;
74503;SDS011;62988;55.776;37.544;2022-10-16T10:10:01;8.82;;;2.25;;
74503;SDS011;62988;55.776;37.544;2022-10-16T10:12:30;14.00;;;2.33;;
74503;SDS011;62988;55.776;37.544;2022-10-16T10:15:03;8.95;;;2.28;;
74503;SDS011;62988;55.776;37.544;2022-10-16T10:17:31;6.68;;;2.20;;
74503;SDS011;62988;55.776;37.544;2022-10-16T10:20:00;6.30;;;1.88;;
74503;SDS011;62988;55.776;37.544;2022-10-16T10:22:46;17.23;;;2.03;;
74503;SDS011;62988;55.776;37.544;2022-10-16T10:33:31;8.65;;;2.72;;
74503;SDS011;62988;55.776;37.544;2022-10-16T10:39:15;6.85;;;2.10;;
74503;SDS011;62988;55.776;37.544;2022-10-16T10:47:21;8.93;;;2.28;;
74503;SDS011;62988;55.776;37.544;2022-10-16T10:55:21;8.75;;;2.30;;
74503;SDS011;62988;55.776;37.544;2022-10-16T11:01:08;8.70;;;2.40;;
74503;SDS011;62988;55.776;37.544;2022-10-16T11:07:07;7.20;;;2.10;;
74503;SDS011;62988;55.776;37.544;2022-10-16T11:09:17;8.93;;;2.30;;
74503;SDS011;62988;55.776;37.544;2022-10-16T11:11:51;5.82;;;1.92;;
74503;SDS011;62988;55.776;37.544;2022-10-16T11:14:23;7.25;;;2.20;;
74503;SDS011;62988;55.776;37.544;2022-10-16T11:16:56;7.90;;;2.17;;
74503;SDS011;62988;55.776;37.544;2022-10-16T11:24:53;12.77;;;2.65;;
74503;SDS011;62988;55.776;37.544;2022-10-16T11:27:34;10.20;;;2.45;;
74503;SDS011;62988;55.776;37.544;2022-10-16T11:30:05;10.35;;;2.85;;
74503;SDS011;62988;55.776;37.544;2022-10-16T11:35:53;6.05;;;2.30;;
74503;SDS011;62988;55.776;37.544;2022-10-16T11:46:32;5.03;;;2.10;;
74503;SDS011;62988;55.776;37.544;2022-10-16T11:51:45;9.68;;;2.40;;
74503;SDS011;62988;55.776;37.544;2022-10-16T11:54:24;6.45;;;2.30;;
74503;SDS011;62988;55.776;37.544;2022-10-16T11:56:51;7.03;;;2.28;;
74503;SDS011;62988;55.776;37.544;2022-10-16T12:04:48;5.72;;;2.13;;
74503;SDS011;62988;55.776;37.544;2022-10-16T12:07:24;6.40;;;2.33;;
74503;SDS011;62988;55.776;37.544;2022-10-16T12:09:57;4.68;;;2.05;;
74503;SDS011;62988;55.776;37.544;2022-10-16T12:15:18;7.60;;;2.20;;
74503;SDS011;62988;55.776;37.544;2022-10-16T12:17:46;3.92;;;1.90;;
74503;SDS011;62988;55.776;37.544;2022-10-16T12:20:18;7.72;;;2.03;;
74503;SDS011;62988;55.776;37.544;2022-10-16T12:23:06;9.07;;;2.15;;
74503;SDS011;62988;55.776;37.544;2022-10-16T12:25:44;6.15;;;2.30;;
74503;SDS011;62988;55.776;37.544;2022-10-16T12:28:21;6.45;;;2.53;;
74503;SDS011;62988;55.776;37.544;2022-10-16T12:30:55;4.95;;;2.20;;
74503;SDS011;62988;55.776;37.544;2022-10-16T12:33:27;11.73;;;2.83;;
74503;SDS011;62988;55.776;37.544;2022-10-16T12:35:55;11.38;;;4.65;;
74503;SDS011;62988;55.776;37.544;2022-10-16T12:38:26;9.43;;;2.35;;
74503;SDS011;62988;55.776;37.544;2022-10-16T12:41:05;5.50;;;2.05;;
74503;SDS011;62988;55.776;37.544;2022-10-16T12:48:34;6.43;;;2.50;;
74503;SDS011;62988;55.776;37.544;2022-10-16T12:51:11;13.93;;;2.53;;
74503;SDS011;62988;55.776;37.544;2022-10-16T12:54:37;11.90;;;2.83;;
74503;SDS011;62988;55.776;37.544;2022-10-16T13:13:06;11.40;;;3.90;;
74503;SDS011;62988;55.776;37.544;2022-10-16T13:18:44;6.00;;;2.42;;
74503;SDS011;62988;55.776;37.544;2022-10-16T13:24:02;9.35;;;2.55;;
74503;SDS011;62988;55.776;37.544;2022-10-16T13:29:06;9.60;;;2.67;;
74503;SDS011;62988;55.776;37.544;2022-10-16T13:31:31;10.23;;;2.63;;
74503;SDS011;62988;55.776;37.544;2022-10-16T13:33:58;11.40;;;3.10;;
74503;SDS011;62988;55.776;37.544;2022-10-16T13:36:26;8.13;;;2.38;;
74503;SDS011;62988;55.776;37.544;2022-10-16T13:39:06;13.73;;;3.10;;
74503;SDS011;62988;55.776;37.544;2022-10-16T13:41:39;7.82;;;2.58;;
74503;SDS011;62988;55.776;37.544;2022-10-16T13:44:05;6.18;;;2.60;;
74503;SDS011;62988;55.776;37.544;2022-10-16T13:46:39;7.07;;;2.33;;
74503;SDS011;62988;55.776;37.544;2022-10-16T13:49:06;11.30;;;2.90;;
74503;SDS011;62988;55.776;37.544;2022-10-16T13:51:38;8.57;;;2.13;;
74503;SDS011;62988;55.776;37.544;2022-10-16T13:54:04;8.82;;;2.88;;
74503;SDS011;62988;55.776;37.544;2022-10-16T13:56:30;13.52;;;2.90;;
74503;SDS011;62988;55.776;37.544;2022-10-16T13:59:01;8.77;;;2.58;;
74503;SDS011;62988;55.776;37.544;2022-10-16T14:01:33;9.70;;;3.33;;
74503;SDS011;62988;55.776;37.544;2022-10-16T14:04:04;9.32;;;3.10;;
74503;SDS011;62988;55.776;37.544;2022-10-16T14:06:36;13.50;;;2.88;;
74503;SDS011;62988;55.776;37.544;2022-10-16T14:09:13;9.80;;;3.40;;
74503;SDS011;62988;55.776;37.544;2022-10-16T14:11:51;12.07;;;3.80;;
74503;SDS011;62988;55.776;37.544;2022-10-16T14:14:21;16.70;;;3.25;;
74503;SDS011;62988;55.776;37.544;2022-10-16T14:16:48;14.02;;;3.40;;
74503;SDS011;62988;55.776;37.544;2022-10-16T14:19:34;14.35;;;3.97;;
74503;SDS011;62988;55.776;37.544;2022-10-16T14:21:59;12.27;;;2.95;;
74503;SDS011;62988;55.776;37.544;2022-10-16T14:26:56;10.73;;;3.58;;
74503;SDS011;62988;55.776;37.544;2022-10-16T14:29:23;9.48;;;3.00;;
74503;SDS011;62988;55.776;37.544;2022-10-16T14:32:04;8.98;;;2.80;;
74503;SDS011;62988;55.776;37.544;2022-10-16T14:34:31;12.98;;;3.20;;
74503;SDS011;62988;55.776;37.544;2022-10-16T14:37:40;8.90;;;3.17;;
74503;SDS011;62988;55.776;37.544;2022-10-16T14:39:52;8.20;;;3.15;;
74503;SDS011;62988;55.776;37.544;2022-10-16T14:42:20;12.73;;;2.65;;
74503;SDS011;62988;55.776;37.544;2022-10-16T14:44:49;9.75;;;3.13;;
74503;SDS011;62988;55.776;37.544;2022-10-16T14:47:20;8.60;;;3.08;;
74503;SDS011;62988;55.776;37.544;2022-10-16T14:49:50;15.55;;;3.60;;
74503;SDS011;62988;55.776;37.544;2022-10-16T14:52:16;9.98;;;2.95;;
74503;SDS011;62988;55.776;37.544;2022-10-16T14:54:42;12.13;;;2.90;;
74503;SDS011;62988;55.776;37.544;2022-10-16T14:57:17;7.93;;;3.00;;
74503;SDS011;62988;55.776;37.544;2022-10-16T14:59:45;8.30;;;3.38;;
74503;SDS011;62988;55.776;37.544;2022-10-16T15:02:28;8.48;;;3.35;;
74503;SDS011;62988;55.776;37.544;2022-10-16T15:04:56;8.70;;;2.88;;
74503;SDS011;62988;55.776;37.544;2022-10-16T15:07:22;9.05;;;2.42;;
74503;SDS011;62988;55.776;37.544;2022-10-16T15:09:48;10.73;;;3.70;;
74503;SDS011;62988;55.776;37.544;2022-10-16T15:12:14;6.97;;;2.90;;
74503;SDS011;62988;55.776;37.544;2022-10-16T15:14:39;8.23;;;3.08;;
74503;SDS011;62988;55.776;37.544;2022-10-16T15:17:05;12.43;;;3.25;;
74503;SDS011;62988;55.776;37.544;2022-10-16T15:19:30;10.15;;;3.35;;
74503;SDS011;62988;55.776;37.544;2022-10-16T15:21:56;17.70;;;3.50;;
74503;SDS011;62988;55.776;37.544;2022-10-16T15:24:21;12.50;;;3.10;;
74503;SDS011;62988;55.776;37.544;2022-10-16T15:26:47;9.20;;;3.42;;
74503;SDS011;62988;55.776;37.544;2022-10-16T15:29:14;13.32;;;3.22;;
74503;SDS011;62988;55.776;37.544;2022-10-16T15:31:40;15.30;;;3.30;;
74503;SDS011;62988;55.776;37.544;2022-10-16T15:34:09;8.10;;;3.45;;
74503;SDS011;62988;55.776;37.544;2022-10-16T15:36:36;15.07;;;3.42;;
74503;SDS011;62988;55.776;37.544;2022-10-16T15:39:03;6.93;;;2.97;;
74503;SDS011;62988;55.776;37.544;2022-10-16T15:41:29;7.90;;;3.30;;
74503;SDS011;62988;55.776;37.544;2022-10-16T15:43:55;9.50;;;3.83;;
74503;SDS011;62988;55.776;37.544;2022-10-16T15:46:21;8.48;;;3.00;;
74503;SDS011;62988;55.776;37.544;2022-10-16T15:48:48;9.50;;;3.35;;
74503;SDS011;62988;55.776;37.544;2022-10-16T15:51:15;14.40;;;4.00;;
74503;SDS011;62988;55.776;37.544;2022-10-16T15:53:42;8.85;;;3.40;;
74503;SDS011;62988;55.776;37.544;2022-10-16T15:56:09;10.65;;;3.10;;
74503;SDS011;62988;55.776;37.544;2022-10-16T15:58:36;6.15;;;3.00;;
74503;SDS011;62988;55.776;37.544;2022-10-16T16:01:02;8.23;;;3.53;;
74503;SDS011;62988;55.776;37.544;2022-10-16T16:03:29;6.35;;;3.00;;
74503;SDS011;62988;55.776;37.544;2022-10-16T16:05:56;12.00;;;3.25;;
74503;SDS011;62988;55.776;37.544;2022-10-16T16:08:22;8.93;;;3.03;;
74503;SDS011;62988;55.776;37.544;2022-10-16T16:11:01;10.80;;;3.35;;
74503;SDS011;62988;55.776;37.544;2022-10-16T16:13:28;15.63;;;3.33;;
74503;SDS011;62988;55.776;37.544;2022-10-16T16:15:54;15.32;;;3.47;;
74503;SDS011;62988;55.776;37.544;2022-10-16T16:18:20;8.50;;;3.10;;
74503;SDS011;62988;55.776;37.544;2022-10-16T16:20:46;7.18;;;2.80;;
74503;SDS011;62988;55.776;37.544;2022-10-16T16:23:11;8.40;;;2.65;;
74503;SDS011;62988;55.776;37.544;2022-10-16T16:25:37;7.15;;;3.20;;
74503;SDS011;62988;55.776;37.544;2022-10-16T16:28:03;9.48;;;2.58;;
74503;SDS011;62988;55.776;37.544;2022-10-16T16:30:29;7.00;;;2.88;;
74503;SDS011;62988;55.776;37.544;2022-10-16T16:32:54;10.52;;;3.20;;
74503;SDS011;62988;55.776;37.544;2022-10-16T16:35:20;10.70;;;3.15;;
74503;SDS011;62988;55.776;37.544;2022-10-16T16:37:46;5.95;;;2.50;;
74503;SDS011;62988;55.776;37.544;2022-10-16T16:40:12;6.63;;;2.90;;
74503;SDS011;62988;55.776;37.544;2022-10-16T16:42:38;6.50;;;2.60;;
74503;SDS011;62988;55.776;37.544;2022-10-16T16:45:04;7.75;;;2.50;;
74503;SDS011;62988;55.776;37.544;2022-10-16T16:47:30;6.78;;;2.50;;
74503;SDS011;62988;55.776;37.544;2022-10-16T16:49:55;7.55;;;3.53;;